Weather reports worldwide

Advertisment
Bielsa, Spain (8103): temperature & dewpoint: 20.10.2020 22:00:00 - 26.10.2020 22:00:00 (CET)Bielsa, Spain (8103): wind speed & gusts: 20.10.2020 22:00:00 - 26.10.2020 22:00:00 (CET)Bielsa, Spain (8103): wind direction: 20.10.2020 22:00:00 - 26.10.2020 22:00:00 (CET)Bielsa, Spain (8103): visibility: 20.10.2020 22:00:00 - 26.10.2020 22:00:00 (CET)Bielsa, Spain (8103): sunshine duration: 20.10.2020 22:00:00 - 26.10.2020 22:00:00 (CET)Bielsa, Spain (8103): precipitation: 20.10.2020 22:00:00 - 26.10.2020 22:00:00 (CET)
Date & Time tt [°C] td [°C] ff [km/h] ff [kn] fx [km/h] fx [kn] dd vv [km] sd [min] rr [mm]
26.10.2020 22:00:00 - - - - - - - - - -
26.10.2020 21:00:00 2,6 2,1 2 1 5 3 N 20 0 0,0
26.10.2020 20:00:00 3,4 2,5 1 1 13 7 NNW 20 0 0,0
26.10.2020 19:00:00 4,3 3,0 3 2 11 6 NW 20 0 -
26.10.2020 18:00:00 5,6 3,2 4 2 25 14 NNW 20 0 0,0
26.10.2020 17:00:00 7,4 2,1 10 6 32 17 NW 20 0 0,0
26.10.2020 16:00:00 9,4 0,9 10 5 24 13 NNW 20 0 0,0
26.10.2020 15:00:00 9,4 1,3 10 5 29 16 WNW 20 18 0,0
26.10.2020 14:00:00 10,1 0,9 11 6 27 14 NW 15 20 0,0
26.10.2020 13:00:00 10,4 0,6 9 5 26 14 NW 20 38 -
26.10.2020 12:00:00 10,4 2,3 9 5 25 13 WNW 20 60 0,0
26.10.2020 11:00:00 7,3 5,1 3 1 8 4 E 20 38 0,0
26.10.2020 10:00:00 5,3 4,6 3 2 16 9 E 20 8 0,0
26.10.2020 09:00:00 4,1 3,6 2 1 17 9 NW 20 0 0,0
26.10.2020 08:00:00 2,6 2,1 1 0 12 6 W 20 0 0,0
26.10.2020 07:00:00 3,4 2,7 1 0 20 11 W 1,8 0 -
26.10.2020 06:00:00 4,3 3,8 5 3 14 8 NNW 20 0 0,0
26.10.2020 05:00:00 4,9 3,9 3 2 22 12 NW 20 0 2,8
26.10.2020 04:00:00 6,4 5,8 3 2 13 7 NNW 20 0 0,4
26.10.2020 03:00:00 6,5 5,9 3 1 10 5 NE 20 0 0,0
26.10.2020 02:00:00 7,3 6,7 3 1 19 11 E 20 0 0,2
26.10.2020 01:00:00 7,4 6,8 6 3 18 10 SSE 16 0 -
26.10.2020 00:00:00 7,3 6,7 6 3 14 8 SSE 20 0 2,4
25.10.2020 23:00:00 7,3 6,5 4 2 29 16 ESE 8 0 7,2
25.10.2020 22:00:00 7,4 6,5 10 5 31 17 N 2,3 0 7,8
25.10.2020 21:00:00 9,0 8,1 5 3 27 15 E 2,5 0 6,8
25.10.2020 20:00:00 9,2 8,3 9 5 31 17 ESE 1,5 0 7,4
25.10.2020 19:00:00 8,6 8,0 6 3 20 11 SE 3,5 0 -
25.10.2020 18:00:00 8,8 7,8 5 3 22 12 SE 8 0 0,0
25.10.2020 17:00:00 9,5 7,4 8 4 21 11 SSE 12 0 0,2
25.10.2020 16:00:00 9,7 7,4 8 4 27 14 SE 20 0 1,6
25.10.2020 15:00:00 11,7 5,9 8 4 29 16 ESE 20 0 0,0
25.10.2020 14:00:00 12,9 6,2 9 5 29 16 SE 20 3 0,0
25.10.2020 13:00:00 15,1 5,6 8 4 24 13 SE 20 54 -
25.10.2020 12:00:00 12,0 6,1 4 2 17 9 ESE 20 49 0,0
25.10.2020 11:00:00 10,2 8,0 5 3 16 9 SE 20 48 0,0
25.10.2020 10:00:00 6,3 5,8 1 1 5 3 N 20 7 0,0
25.10.2020 09:00:00 4,5 4,1 2 1 13 7 NNW 20 0 0,0
25.10.2020 08:00:00 3,1 2,7 2 1 8 4 NNW 16 0 0,0
25.10.2020 07:00:00 2,9 2,5 1 1 16 8 WSW 20 0 -
25.10.2020 06:00:00 2,9 2,5 1 1 15 8 N 20 0 0,0
25.10.2020 05:00:00 2,5 2,1 3 1 14 8 N 20 0 0,0
25.10.2020 04:00:00 2,7 2,3 2 1 12 7 NW 20 0 0,0
25.10.2020 03:00:00 3,2 2,9 1 1 7 4 N 20 0 0,0
25.10.2020 02:00:00 3,5 3,0 2 1 15 8 SE 16 0 0,0
25.10.2020 01:00:00 - - - - - - - - - -
25.10.2020 00:00:00 4,2 3,8 2 1 14 7 NW 20 0 0,0
24.10.2020 23:00:00 4,7 4,3 3 1 13 7 NW 20 0 0,0
24.10.2020 22:00:00 5,0 4,5 1 1 14 8 NW 20 0 0,0
24.10.2020 21:00:00 5,7 5,0 1 1 7 4 N 20 0 0,0
24.10.2020 20:00:00 6,5 5,6 2 1 10 5 NW 20 0 0,0
24.10.2020 19:00:00 8,0 6,7 4 2 14 7 NW 20 0 -
24.10.2020 18:00:00 9,2 7,3 4 2 14 8 NW 20 0 0,0
24.10.2020 17:00:00 10,5 8,1 3 2 9 5 NW 20 0 0,0
24.10.2020 16:00:00 12,6 7,3 6 4 29 15 SSE 20 0 0,0
24.10.2020 15:00:00 12,3 7,1 3 2 17 9 SSW 20 2 0,0
24.10.2020 14:00:00 14,9 4,8 7 4 21 12 SE 20 56 0,0
24.10.2020 13:00:00 - - - - - - - - - -
24.10.2020 12:00:00 13,0 6,1 6 3 11 6 SE 20 60 0,0
24.10.2020 11:00:00 10,3 7,6 3 1 8 4 SSE 20 60 0,0
24.10.2020 10:00:00 6,3 5,8 2 1 5 3 WNW 20 44 0,0
24.10.2020 09:00:00 2,9 2,5 1 1 8 5 N 20 0 0,0
24.10.2020 08:00:00 2,5 2,1 1 1 10 5 W 20 0 0,0
24.10.2020 07:00:00 2,5 2,1 2 1 15 8 NW 20 0 -
24.10.2020 06:00:00 2,6 2,1 1 1 14 7 NW 20 0 0,0
24.10.2020 05:00:00 3,0 2,5 2 1 13 7 WNW 20 0 0,0
24.10.2020 04:00:00 3,3 2,9 1 1 15 8 W 20 0 0,0
24.10.2020 03:00:00 3,7 3,2 2 1 16 8 WNW 20 0 0,0
24.10.2020 02:00:00 4,2 3,8 3 2 15 8 WNW 20 0 0,0
24.10.2020 01:00:00 4,3 3,9 2 1 9 5 WNW 19 0 -
24.10.2020 00:00:00 4,9 4,5 1 1 16 8 N 20 0 0,0
23.10.2020 23:00:00 5,4 4,8 3 2 13 7 WNW 20 0 0,0
23.10.2020 22:00:00 5,7 5,1 3 2 7 4 NNW 6 0 0,0
23.10.2020 21:00:00 6,5 5,9 1 1 5 3 N 12 0 0,0
23.10.2020 20:00:00 7,7 7,1 1 0 7 4 NE 11 0 0,0
23.10.2020 19:00:00 8,2 7,4 1 1 6 3 NNW 10 0 -
23.10.2020 18:00:00 9,2 8,4 3 1 5 3 N 20 0 0,0
23.10.2020 17:00:00 10,3 9,0 1 1 8 4 N 20 0 0,0
23.10.2020 16:00:00 11,7 9,8 3 1 16 9 E 20 0 0,2
23.10.2020 15:00:00 11,6 10,3 3 2 8 4 SE 20 0 0,2
23.10.2020 14:00:00 11,3 9,9 3 1 20 11 ENE 20 0 2,0
23.10.2020 13:00:00 12,4 8,7 5 3 25 13 NNW 20 14 -
23.10.2020 12:00:00 13,3 9,2 4 2 17 9 NW 20 36 0,0
23.10.2020 11:00:00 11,1 8,1 5 3 26 14 WNW 20 6 0,0
23.10.2020 10:00:00 11,7 9,9 9 5 31 17 ESE 20 7 0,4
23.10.2020 09:00:00 10,7 9,6 4 2 20 11 S 20 0 0,0
23.10.2020 08:00:00 10,4 9,8 5 3 18 10 SSE 20 0 0,0
23.10.2020 07:00:00 10,5 9,9 4 2 17 9 SE 20 0 -
23.10.2020 06:00:00 10,6 10,0 2 1 14 7 ESE 3,9 0 1,2
23.10.2020 05:00:00 10,8 10,2 4 2 15 8 SE 20 0 0,8
23.10.2020 04:00:00 10,9 10,3 3 2 15 8 NW 3,4 0 2,8
23.10.2020 03:00:00 11,1 10,5 3 2 18 10 SW 3,4 0 6,0
23.10.2020 02:00:00 10,8 10,2 3 2 9 5 NNW 8 0 3,8
23.10.2020 01:00:00 11,0 10,4 3 2 13 7 WNW 6 0 -
23.10.2020 00:00:00 10,9 10,3 2 1 6 3 E 7 0 1,2
22.10.2020 23:00:00 11,0 10,4 2 1 11 6 E 5 0 2,0
22.10.2020 22:00:00 11,1 10,5 3 1 13 7 E 15 0 0,0
22.10.2020 21:00:00 11,3 10,6 3 1 16 9 E 5 0 0,6
22.10.2020 20:00:00 11,4 10,8 1 1 3 2 NNE 9 0 1,2
22.10.2020 19:00:00 11,8 11,0 1 1 6 3 S 4,3 0 -
22.10.2020 18:00:00 12,5 11,6 1 0 14 8 ESE 4,3 0 1,6
22.10.2020 17:00:00 12,9 12,0 1 1 8 4 NNW 7 0 1,4
22.10.2020 16:00:00 13,6 12,1 2 1 12 6 ESE 7 0 0,6
22.10.2020 15:00:00 14,5 12,2 2 1 11 6 ENE 20 0 0,0
22.10.2020 14:00:00 13,7 11,9 7 4 13 7 E 20 0 0,0
22.10.2020 13:00:00 13,3 11,7 4 2 15 8 ESE 20 0 -
22.10.2020 12:00:00 13,2 12,1 5 3 13 7 E 20 0 0,0
22.10.2020 11:00:00 12,3 11,7 2 1 14 8 E 7 0 0,0
22.10.2020 10:00:00 11,5 10,9 6 3 18 10 E 20 0 0,4
22.10.2020 09:00:00 11,2 10,5 4 2 19 10 SE 20 0 0,6
22.10.2020 08:00:00 11,0 10,4 5 3 18 10 ESE 20 0 1,0
22.10.2020 07:00:00 10,9 10,3 3 1 10 5 SSE 6 0 -
22.10.2020 06:00:00 11,0 10,2 3 2 7 4 SE 7 0 0,4
22.10.2020 05:00:00 11,2 10,3 2 1 16 9 SE 20 0 0,0
22.10.2020 04:00:00 11,9 10,3 4 2 46 25 ESE 20 0 1,8
22.10.2020 03:00:00 12,4 11,3 2 1 16 9 WSW 3,5 0 1,8
22.10.2020 02:00:00 13,2 11,1 3 1 36 19 ESE 20 0 0,0
22.10.2020 01:00:00 14,2 10,8 10 5 43 23 ESE 20 0 -
22.10.2020 00:00:00 15,4 9,7 14 8 33 18 E 20 0 0,0
21.10.2020 23:00:00 13,8 9,0 7 4 32 17 ESE 20 0 0,0
21.10.2020 22:00:00 12,9 9,6 7 4 27 15 ESE 20 0 0,2
21.10.2020 21:00:00 12,3 9,8 1 1 5 3 NNE 20 0 0,0
21.10.2020 20:00:00 13,1 9,9 2 1 17 9 NNW 20 0 0,0
21.10.2020 19:00:00 15,3 9,8 6 3 24 13 NNE 20 0 -
21.10.2020 18:00:00 14,9 10,6 1 1 41 22 E 20 0 0,0
21.10.2020 17:00:00 15,0 11,6 4 2 29 15 ENE 20 0 0,2
21.10.2020 16:00:00 17,5 9,4 6 4 24 13 SE 20 0 0,0
21.10.2020 15:00:00 17,2 8,9 5 3 22 12 SE 20 0 0,0
21.10.2020 14:00:00 17,7 10,8 7 4 27 15 SE 20 4 0,0
21.10.2020 13:00:00 19,5 10,2 8 4 25 14 SE 20 58 -
21.10.2020 12:00:00 18,4 9,9 9 5 25 13 SSE 20 59 0,0
21.10.2020 11:00:00 16,2 10,3 11 6 24 13 SSE 20 32 0,0
21.10.2020 10:00:00 13,4 10,0 8 5 21 12 SSE 20 2 0,0
21.10.2020 09:00:00 13,2 9,0 8 4 28 15 SSE 20 0 0,0
21.10.2020 08:00:00 13,9 8,5 14 7 47 26 ESE 12 0 0,0
21.10.2020 07:00:00 13,0 8,5 21 12 50 27 E 20 0 -
21.10.2020 06:00:00 12,2 8,7 27 15 53 29 E 12 0 0,6
21.10.2020 05:00:00 12,6 7,7 18 10 53 29 E 14 0 0,4
21.10.2020 04:00:00 14,8 5,3 21 11 56 30 ESE 18 0 0,0
21.10.2020 03:00:00 14,3 5,3 14 8 59 32 ESE 20 0 0,0
21.10.2020 02:00:00 12,9 6,2 6 4 23 13 SE 20 0 0,0
21.10.2020 01:00:00 11,9 6,8 5 3 16 9 ESE 20 0 -
21.10.2020 00:00:00 12,7 6,2 6 3 24 13 SSE 20 0 0,0
20.10.2020 23:00:00 12,9 6,5 5 3 28 15 S 20 0 0,0
20.10.2020 22:00:00 13,8 5,6 7 4 32 18 SSE 20 0 0,0

tt = temperature
td = dewpoint
ff = wind speed
fx = gusts
dd = wind direction
vv = visibility
sd = sunshine duration
rr = precipitation

Next stations